Flight Track Log - Related Links

Times and Time Zones

All times are in EDT time to prevent confusion due to time zone crossing. See the N42HN flight status page for this flight to view local times or setup timezone preferences in your user account.

Time Position Orientation Groundspeed Altitude Reporting Facility
EDT Latitude Longitude Course Direction KTS MPH feet Rate Location/Type
Fri 03:59:39 PM 26.0750 -80.1389 336° Northwest 170 196 800  Level Miami Center
Fri 04:00:52 PM 26.0869 -80.0653 80° East 218 251 3,900 2,707 Climbing Miami Center
Fri 04:01:52 PM 26.1517 -80.0669 359° North 187 215 6,800 2,600 Climbing Miami Center
Fri 04:02:52 PM 26.2100 -80.1681 303° West 126 145 9,100 2,050 Climbing Miami Center
Fri 04:03:52 PM 26.2125 -80.2400 272° West 244 281 10,900 1,400 Climbing Miami Center
Fri 04:04:52 PM 26.2433 -80.3567 286° West 320 368 11,900 1,650 Climbing Miami Center
Fri 04:05:00 PM 26.3853 -80.7093 336° Northwest  Level FlightAware Approximate
Fri 04:05:52 PM 26.2733 -80.4872 284° West 387 445 14,200  Level Miami Center
Fri 04:06:52 PM 26.3269 -80.5978 298° West 406 467 16,700 2,000 Climbing Miami Center
Fri 04:07:52 PM 26.3953 -80.6997 307° West 412 474 18,200 1,500 Climbing Miami Center
Fri 04:08:52 PM 26.4533 -80.7992 303° West 423 487 19,700 1,550 Climbing Miami Center
Fri 04:09:52 PM 26.5317 -80.9153 307° West 428 493 21,300 1,600 Climbing Miami Center
Fri 04:10:52 PM 26.5994 -81.0269 304° West 428 493 22,900 1,800 Climbing Miami Center
Fri 04:11:52 PM 26.6594 -81.1197 306° West 428 493 24,900 1,950 Climbing Miami Center
Fri 04:12:52 PM 26.7311 -81.2361 305° West 421 484 26,800 1,450 Climbing Miami Center
Fri 04:13:52 PM 26.7778 -81.3472 295° West 405 466 27,800 900 Climbing Miami Center
Fri 04:14:52 PM 26.8181 -81.4653 291° West 404 465 28,600 800 Climbing Miami Center
Fri 04:15:52 PM 26.8578 -81.5878 290° West 416 479 29,400 800 Climbing Miami Center
Fri 04:16:52 PM 26.8939 -81.7008 290° West 416 479 30,200 850 Climbing Miami Center
Fri 04:17:52 PM 26.9314 -81.8258 289° West 422 486 31,100 900 Climbing Miami Center
Fri 04:18:52 PM 26.9689 -81.9486 289° West 422 486 32,000 950 Climbing Miami Center
Fri 04:19:52 PM 27.0119 -82.0833 290° West 422 486 33,000 950 Climbing Miami Center
Fri 04:20:52 PM 27.0436 -82.1919 288° West 417 480 33,900 800 Climbing Miami Center
Fri 04:21:52 PM 27.0869 -82.3128 292° West 411 473 34,600 750 Climbing Miami Center
Fri 04:22:52 PM 27.1222 -82.4311 289° West 411 473 35,400 700 Climbing Miami Center
Fri 04:23:52 PM 27.1553 -82.5469 288° West 411 473 36,000 550 Climbing Miami Center
Fri 04:24:52 PM 27.1900 -82.6678 288° West 406 467 36,500 500 Climbing Miami Center
Fri 04:25:52 PM 27.2311 -82.7864 291° West 406 467 37,000 800 Climbing Miami Center
Fri 04:26:52 PM 27.2619 -82.9025 287° West 406 467 38,100 900 Climbing Miami Center
Fri 04:27:52 PM 27.2989 -83.0142 290° West 401 461 38,800 400 Climbing Miami Center
Fri 04:28:52 PM 27.3336 -83.1281 289° West 390 449 38,900 300 Climbing Miami Center
Fri 04:29:52 PM 27.3661 -83.2419 288° West 390 449 39,400 450 Climbing Miami Center
Fri 04:30:52 PM 27.4047 -83.3586 290° West 390 449 39,800 300 Climbing Miami Center
Fri 04:31:52 PM 27.4350 -83.4725 287° West 390 449 40,000 77 Climbing Miami Center
Fri 04:33:28 PM 27.5175 -83.6600 296° West 397 457 40,000  Level Jacksonville Center
Fri 04:34:28 PM 27.5647 -83.7750 295° West 397 457 40,000  Level Jacksonville Center
Fri 04:35:27 PM 27.6183 -83.8831 299° West 397 457 40,000  Level Jacksonville Center
Fri 04:36:27 PM 27.6675 -83.9961 296° West 397 457 40,000  Level Jacksonville Center
Fri 04:37:27 PM 27.7247 -84.1069 300° West 397 457 40,000  Level Jacksonville Center
Fri 04:38:27 PM 27.7822 -84.2225 299° West 403 464 40,000  Level Jacksonville Center
Fri 04:39:27 PM 27.8289 -84.3333 295° West 409 471 40,000  Level Jacksonville Center
Fri 04:40:27 PM 27.8839 -84.4469 299° West 409 471 40,000  Level Jacksonville Center
Fri 04:41:28 PM 27.9347 -84.5628 296° West 409 471 40,000  Level Jacksonville Center
Fri 04:42:27 PM 27.9917 -84.6742 300° West 408 470 40,000  Level Jacksonville Center
Fri 04:43:27 PM 28.0358 -84.7853 294° West 419 482 40,000  Level Jacksonville Center
Fri 04:44:28 PM 28.0906 -84.8994 299° West 414 476 40,000  Level Jacksonville Center
Fri 04:45:28 PM 28.1450 -85.0133 298° West 414 476 40,000  Level Jacksonville Center
Fri 04:46:28 PM 28.1953 -85.1297 296° West 414 476 40,000  Level Jacksonville Center
Fri 04:47:28 PM 28.2494 -85.2394 299° West 414 476 40,000  Level Jacksonville Center
Fri 04:48:28 PM 28.2994 -85.3583 296° West 414 476 40,000  Level Jacksonville Center
Fri 04:49:28 PM 28.3536 -85.4706 299° West 408 470 40,000  Level Jacksonville Center
Fri 04:50:28 PM 28.4056 -85.5853 297° West 408 470 40,000  Level Jacksonville Center
Fri 04:51:28 PM 28.4553 -85.7022 296° West 408 470 40,000  Level Jacksonville Center
Fri 04:52:28 PM 28.5111 -85.8172 299° West 408 470 40,000  Level Jacksonville Center
Fri 04:53:28 PM 28.5606 -85.9344 296° West 413 475 40,000  Level Jacksonville Center
Fri 04:54:28 PM 28.6142 -86.0472 298° West 413 475 40,000  Level Jacksonville Center
Fri 04:55:27 PM 28.6692 -86.1767 296° West 408 470 40,000  Level Jacksonville Center
Fri 04:56:28 PM 28.7206 -86.2919 297° West 415 478 40,000  Level Jacksonville Center
Fri 04:57:27 PM 28.7736 -86.4122 297° West 421 484 40,000  Level Jacksonville Center
Fri 04:58:28 PM 28.8244 -86.5325 296° West 416 479 40,000  Level Jacksonville Center
Fri 04:59:28 PM 28.8794 -86.6531 298° West 416 479 40,000  Level Jacksonville Center
Fri 05:00:28 PM 28.9322 -86.7736 297° West 421 484 40,000  Level Jacksonville Center
Fri 05:01:28 PM 28.9850 -86.8894 298° West 415 478 40,000  Level Jacksonville Center
Fri 05:02:11 PM 29.0131 -86.9547 296° West 424 488 40,000  Level Houston Center
Fri 05:03:12 PM 29.0778 -87.1003 297° West 427 491 40,000  Level Houston Center
Fri 05:04:14 PM 29.1297 -87.2231 296° West 429 494 40,000  Level Houston Center
Fri 05:05:16 PM 29.1819 -87.3453 296° West 429 494 40,000  Level Houston Center
Fri 05:06:17 PM 29.2358 -87.4681 297° West 432 497 40,000  Level Houston Center
Fri 05:07:19 PM 29.2864 -87.5919 295° West 429 494 40,000  Level Houston Center
Fri 05:08:20 PM 29.3428 -87.7147 298° West 434 499 40,000  Level Houston Center
Fri 05:09:22 PM 29.3997 -87.8553 295° West 433 498 40,000  Level Houston Center
Fri 05:10:24 PM 29.4531 -87.9811 296° West 438 504 40,000  Level Houston Center
Fri 05:11:25 PM 29.5067 -88.1053 296° West 436 502 40,000  Level Houston Center
Fri 05:12:27 PM 29.5581 -88.2317 295° West 435 501 40,000  Level Houston Center
Fri 05:13:29 PM 29.6125 -88.3536 297° West 431 496 40,000  Level Houston Center
Fri 05:14:30 PM 29.6697 -88.4969 295° West 431 496 40,000  Level Houston Center
Fri 05:15:32 PM 29.7231 -88.6222 296° West 434 499 40,000  Level Houston Center
Fri 05:16:34 PM 29.7753 -88.7464 296° West 434 499 40,000  Level Houston Center
Fri 05:17:35 PM 29.8250 -88.8725 294° West 434 499 40,000  Level Houston Center
Fri 05:18:37 PM 29.8778 -88.9958 296° West 431 496 40,000  Level Houston Center
Fri 05:19:39 PM 29.9278 -89.1222 295° West 431 496 40,000  Level Houston Center
Fri 05:20:40 PM 29.9800 -89.2467 296° West 431 496 40,000  Level Houston Center
Fri 05:21:42 PM 30.0414 -89.3967 295° West 431 496 40,000 145 Level Houston Center
Fri 05:22:44 PM 30.0919 -89.5233 295° West 433 498 40,300 341 Climbing Houston Center
Fri 05:23:45 PM 30.1433 -89.6497 295° West 433 498 40,700 341 Climbing Houston Center
Fri 05:24:47 PM 30.1939 -89.7786 294° West 434 499 41,000 145 Climbing Houston Center
Fri 05:25:49 PM 30.2517 -89.9094 297° West 443 510 41,000  Level Houston Center
Fri 05:26:50 PM 30.3147 -90.0342 300° West 444 511 41,000  Level Houston Center
Fri 05:27:52 PM 30.3769 -90.1600 300° West 446 513 41,000  Level Houston Center
Fri 05:28:53 PM 30.4375 -90.2850 299° West 445 512 41,000  Level Houston Center
Fri 05:29:55 PM 30.4994 -90.4086 300° West 441 507 41,000  Level Houston Center
Fri 05:30:57 PM 30.5589 -90.5353 299° West 444 511 41,000  Level Houston Center
Fri 05:31:58 PM 30.6219 -90.6608 300° West 447 514 41,000  Level Houston Center
Fri 05:33:00 PM 30.6947 -90.8111 299° West 448 516 41,000  Level Houston Center
Fri 05:34:01 PM 30.7567 -90.9394 299° West 453 521 41,000  Level Houston Center
Fri 05:35:03 PM 30.8194 -91.0681 300° West 456 525 41,000  Level Houston Center
Fri 05:36:04 PM 30.8736 -91.1900 297° West 457 526 41,000  Level Houston Center
Fri 05:37:06 PM 30.9467 -91.3447 299° West 454 522 41,000  Level Houston Center
Fri 05:38:08 PM 31.0086 -91.4747 299° West 456 525 41,000  Level Houston Center
Fri 05:39:09 PM 31.0714 -91.6075 299° West 465 535 41,000  Level Houston Center
Fri 05:40:11 PM 31.1342 -91.7375 299° West 460 529 41,000  Level Houston Center
Fri 05:41:12 PM 31.1947 -91.8700 298° West 463 533 41,000  Level Houston Center
Fri 05:42:14 PM 31.2572 -92.0022 299° West 464 534 41,000  Level Houston Center
Fri 05:43:15 PM 31.3219 -92.1394 299° West 460 529 41,000  Level Houston Center
Fri 05:44:17 PM 31.3803 -92.2675 298° West 452 520 41,000  Level Houston Center
Fri 05:45:18 PM 31.4417 -92.3964 299° West 453 521 41,000  Level Houston Center
Fri 05:46:20 PM 31.5011 -92.5242 299° West 451 519 41,000  Level Houston Center
Fri 05:47:22 PM 31.5678 -92.6764 297° West 442 509 41,000  Level Houston Center
Fri 05:48:23 PM 31.6264 -92.7997 299° West 436 502 41,000  Level Houston Center
Fri 05:49:25 PM 31.6806 -92.9214 298° West 427 491 41,000  Level Houston Center
Fri 05:50:26 PM 31.7356 -93.0408 298° West 421 484 41,000  Level Houston Center
Fri 05:51:28 PM 31.7903 -93.1600 298° West 415 478 41,000  Level Houston Center
Fri 05:52:29 PM 31.8475 -93.2906 297° West 414 476 41,000  Level Houston Center
Fri 05:53:31 PM 31.9036 -93.4086 299° West 414 476 41,000  Level Houston Center
Fri 05:54:32 PM 31.9556 -93.5286 297° West 412 474 41,000  Level Houston Center
Fri 05:55:33 PM 32.0086 -93.6481 298° West 413 475 41,000  Level Houston Center
Fri 05:56:35 PM 32.0714 -93.7850 298° West 417 480 41,000  Level Houston Center
Fri 05:57:36 PM 32.1236 -93.9064 297° West 417 480 41,000  Level Houston Center
Fri 05:58:38 PM 32.1778 -94.0281 298° West 418 481 41,000  Level Houston Center
Fri 05:59:39 PM 32.2336 -94.1503 298° West 425 489 41,000  Level Houston Center
Fri 06:00:41 PM 32.2856 -94.2750 296° West 424 488 41,000  Level Houston Center
Fri 06:01:42 PM 32.3417 -94.3972 299° West 424 488 41,000  Level Houston Center
Fri 06:02:59 PM 32.4086 -94.5589 296° West 426 490 41,000  Level Fort Worth Center
Fri 06:03:59 PM 32.4614 -94.6828 297° West 418 481 41,000  Level Fort Worth Center
Fri 06:04:59 PM 32.5161 -94.8044 298° West 423 487 41,000  Level Fort Worth Center
Fri 06:05:59 PM 32.5667 -94.9311 295° West 423 487 41,000  Level Fort Worth Center
Fri 06:06:59 PM 32.6214 -95.0556 298° West 423 487 41,000  Level Fort Worth Center
Fri 06:07:59 PM 32.6781 -95.1822 298° West 423 487 41,000  Level Fort Worth Center
Fri 06:08:59 PM 32.7389 -95.3214 297° West 423 487 41,000  Level Fort Worth Center
Fri 06:09:59 PM 32.7908 -95.4464 296° West 423 487 41,000  Level Fort Worth Center
Fri 06:10:59 PM 32.8450 -95.5711 297° West 423 487 41,000  Level Fort Worth Center
Fri 06:11:59 PM 32.8989 -95.6989 297° West 423 487 41,000  Level Fort Worth Center
Fri 06:12:59 PM 32.9528 -95.8264 297° West 423 487 41,000  Level Fort Worth Center
Fri 06:13:59 PM 33.0067 -95.9519 297° West 423 487 41,000  Level Fort Worth Center
Fri 06:14:59 PM 33.0600 -96.0800 296° West 423 487 41,000  Level Fort Worth Center
Fri 06:15:59 PM 33.1136 -96.2081 297° West 423 487 41,000  Level Fort Worth Center
Fri 06:16:59 PM 33.1650 -96.3364 296° West 423 487 41,000  Level Fort Worth Center
Fri 06:17:59 PM 33.2181 -96.4625 297° West 423 487 41,000  Level Fort Worth Center
Fri 06:18:59 PM 33.2711 -96.5911 296° West 423 487 41,000  Level Fort Worth Center
Fri 06:19:59 PM 33.3242 -96.7172 297° West 423 487 41,000  Level Fort Worth Center
Fri 06:20:59 PM 33.3664 -96.8214 296° West 423 487 41,000  Level Fort Worth Center
Fri 06:21:59 PM 33.4275 -96.9728 296° West 423 487 41,000  Level Fort Worth Center
Fri 06:22:59 PM 33.4822 -97.0972 298° West 423 487 41,000  Level Fort Worth Center
Fri 06:23:59 PM 33.5303 -97.2267 294° West 423 487 41,000  Level Fort Worth Center
Fri 06:24:59 PM 33.5806 -97.3536 295° West 418 481 41,000  Level Fort Worth Center
Fri 06:25:59 PM 33.6328 -97.4808 296° West 418 481 41,000  Level Fort Worth Center
Fri 06:26:59 PM 33.6847 -97.6106 296° West 423 487 41,000  Level Fort Worth Center
Fri 06:27:59 PM 33.7347 -97.7356 296° West 423 487 41,000  Level Fort Worth Center
Fri 06:28:59 PM 33.7864 -97.8608 296° West 423 487 41,000  Level Fort Worth Center
Fri 06:29:59 PM 33.8339 -97.9911 294° West 423 487 41,000  Level Fort Worth Center
Fri 06:30:59 PM 33.8856 -98.1167 296° West 423 487 41,000  Level Fort Worth Center
Fri 06:31:59 PM 33.9347 -98.2447 295° West 423 487 41,000  Level Fort Worth Center
Fri 06:32:59 PM 33.9839 -98.3703 295° West 423 487 41,000  Level Fort Worth Center
Fri 06:33:59 PM 34.0350 -98.4986 296° West 423 487 41,000  Level Fort Worth Center
Fri 06:34:59 PM 34.0861 -98.6272 296° West 423 487 41,000  Level Fort Worth Center
Fri 06:35:59 PM 34.1328 -98.7558 294° West 423 487 41,000  Level Fort Worth Center
Fri 06:36:59 PM 34.1833 -98.8897 295° West 423 487 41,000  Level Fort Worth Center
Fri 06:37:59 PM 34.2297 -99.0136 294° West 417 480 41,000 -100 Level Fort Worth Center
Fri 06:38:59 PM 34.2722 -99.1250 295° West 417 480 40,800 -1,000 Descending Fort Worth Center
Fri 06:39:59 PM 34.3247 -99.2542 296° West 417 480 39,000 -1,700 Descending Fort Worth Center
Fri 06:40:59 PM 34.3747 -99.3836 295° West 423 487 37,400 -1,515 Descending Fort Worth Center
Fri 06:43:13 PM 34.4908 -99.6917 295° West 428 493 34,100 -1,754 Descending Albuquerque Center
Fri 06:44:14 PM 34.5406 -99.8281 294° West 436 502 31,700 -2,262 Descending Albuquerque Center
Fri 06:45:15 PM 34.5917 -99.9636 295° West 439 505 29,500 -1,317 Descending Albuquerque Center
Fri 06:46:17 PM 34.6431 -100.1008 295° West 443 510 29,000 -1,366 Descending Albuquerque Center
Fri 06:47:18 PM 34.6939 -100.2425 294° West 451 519 26,700 -2,262 Descending Albuquerque Center
Fri 06:48:19 PM 34.7456 -100.3786 295° West 446 513 24,400 -2,213 Descending Albuquerque Center
Fri 06:49:20 PM 34.7978 -100.5247 294° West 444 511 22,200 -2,390 Descending Albuquerque Center
Fri 06:50:22 PM 34.8494 -100.6594 295° West 441 507 19,500 -2,488 Descending Albuquerque Center
Fri 06:51:23 PM 34.8942 -100.7853 293° West 413 475 17,100 -2,410 Descending Albuquerque Center
Fri 06:52:24 PM 34.9372 -100.9031 294° West 388 447 14,600 -2,164 Descending Albuquerque Center
Fri 06:53:25 PM 34.9931 -101.0017 305° West 360 414 12,700 -1,805 Descending Albuquerque Center
Fri 06:54:27 PM 35.0525 -101.0803 313° West 324 373 10,900 -1,659 Descending Albuquerque Center
Fri 06:55:28 PM 35.0972 -101.1678 302° West 309 356 9,300 -1,672 Descending Albuquerque Center
Fri 06:56:29 PM 35.1400 -101.2561 301° West 306 352 7,500 -1,525 Descending Albuquerque Center
Fri 06:57:30 PM 35.1894 -101.3575 301° West 298 343 6,200 -878 Descending Albuquerque Center
Fri 06:58:32 PM 35.2269 -101.4331 301° West 280 322 5,700 -585 Descending Albuquerque Center
Fri 06:59:33 PM 35.2522 -101.5111 292° West 259 298 5,000 -390 Descending Albuquerque Center
Fri 07:00:35 PM 35.2711 -101.5853 287° West 240 276 4,900 -146 Descending Albuquerque Center
Fri 07:01:36 PM 35.2717 -101.6489 271° West 212 244 4,700 -344 Descending Albuquerque Center
Fri 07:02:37 PM 35.2467 -101.6783 224° Southwest 161 185 4,200 -443 Descending Albuquerque Center
Fri 07:03:38 PM 35.2211 -101.7103 226° Southwest 146 168 3,800 -393 Descending Albuquerque Center
Fri 07:05:00 PM 35.2167 -101.7000 242° Southwest  Level FlightAware Approximate

Login

Don't have an account? Register now (free) for customized features, flight alerts, and more!